createdAt,value
2022-12-01T00:01:25.861Z,10.52
2022-12-01T00:03:57.810Z,10.93
2022-12-01T00:06:29.770Z,10.88
2022-12-01T00:09:20.621Z,10.80
2022-12-01T00:11:53.992Z,11.38
2022-12-01T00:14:26.004Z,10.35
2022-12-01T00:16:58.095Z,11.60
2022-12-01T00:19:30.071Z,10.52
2022-12-01T00:22:02.605Z,11.27
2022-12-01T00:24:34.511Z,11.07
2022-12-01T00:27:07.962Z,10.63
2022-12-01T00:29:39.990Z,11.75
2022-12-01T00:32:12.021Z,10.65
2022-12-01T00:34:44.065Z,11.45
2022-12-01T00:37:16.351Z,10.13
2022-12-01T00:39:48.549Z,11.85
2022-12-01T00:42:22.500Z,11.15
2022-12-01T00:44:54.479Z,10.65
2022-12-01T00:47:26.469Z,10.30
2022-12-01T00:49:58.454Z,11.10
2022-12-01T00:52:30.365Z,11.27
2022-12-01T00:55:02.325Z,11.88
2022-12-01T00:57:35.677Z,11.65
2022-12-01T01:00:09.011Z,11.60
2022-12-01T01:02:41.071Z,12.35
2022-12-01T01:05:13.336Z,12.35
2022-12-01T01:07:45.338Z,10.55
2022-12-01T01:10:17.561Z,11.68
2022-12-01T01:12:50.865Z,12.75
2022-12-01T01:15:22.788Z,12.15
2022-12-01T01:17:54.723Z,11.02
2022-12-01T01:20:26.715Z,10.73
2022-12-01T01:22:58.821Z,11.07
2022-12-01T01:25:32.679Z,10.40
2022-12-01T01:28:06.114Z,11.88
2022-12-01T01:30:39.626Z,11.25
2022-12-01T01:33:11.598Z,10.93
2022-12-01T01:35:43.483Z,12.85
2022-12-01T01:38:15.804Z,13.48
2022-12-01T01:40:47.867Z,12.65
2022-12-01T01:43:46.365Z,12.68
2022-12-01T01:46:20.584Z,12.55
2022-12-01T01:48:55.218Z,11.02
2022-12-01T01:51:32.525Z,12.48
2022-12-01T01:54:08.126Z,11.27
2022-12-01T01:56:40.113Z,11.07
2022-12-01T01:59:17.282Z,13.23
2022-12-01T02:01:54.629Z,12.07
2022-12-01T02:04:27.740Z,11.15
2022-12-01T02:06:59.842Z,11.68
2022-12-01T02:09:31.779Z,10.52
2022-12-01T02:12:20.368Z,12.88
2022-12-01T02:15:08.870Z,12.43
2022-12-01T02:17:47.984Z,12.55
2022-12-01T02:20:45.664Z,12.18
2022-12-01T02:23:50.681Z,11.50
2022-12-01T02:26:42.588Z,12.30
2022-12-01T02:29:41.783Z,11.80
2022-12-01T02:32:23.551Z,12.63
2022-12-01T02:34:59.348Z,12.63
2022-12-01T02:37:35.717Z,12.75
2022-12-01T02:40:15.259Z,13.27
2022-12-01T02:42:59.992Z,12.32
2022-12-01T02:45:40.969Z,12.18
2022-12-01T02:48:20.964Z,12.55
2022-12-01T02:50:55.522Z,11.93
2022-12-01T02:53:27.442Z,12.27
2022-12-01T02:55:59.616Z,11.65
2022-12-01T02:58:31.691Z,12.77
2022-12-01T03:01:24.409Z,11.23
2022-12-01T03:04:10.092Z,11.90
2022-12-01T03:06:51.664Z,11.68
2022-12-01T03:09:34.450Z,12.60
2022-12-01T03:12:15.674Z,10.85
2022-12-01T03:15:03.280Z,11.32
2022-12-01T03:17:40.059Z,12.23
2022-12-01T03:20:19.555Z,10.60
2022-12-01T03:22:56.594Z,11.98
2022-12-01T03:25:30.923Z,11.77
2022-12-01T03:28:22.201Z,11.27
2022-12-01T03:30:59.376Z,11.57
2022-12-01T03:33:34.049Z,11.68
2022-12-01T03:36:15.115Z,12.65
2022-12-01T03:38:52.175Z,11.68
2022-12-01T03:41:29.942Z,11.00
2022-12-01T03:44:07.475Z,11.82
2022-12-01T03:46:45.865Z,11.80
2022-12-01T03:49:18.546Z,11.07
2022-12-01T03:51:59.764Z,11.23
2022-12-01T03:54:47.324Z,12.63
2022-12-01T03:57:25.851Z,11.75
2022-12-01T03:59:57.982Z,12.90
2022-12-01T04:02:30.196Z,12.43
2022-12-01T04:05:02.146Z,11.25
2022-12-01T04:07:35.647Z,11.85
2022-12-01T04:10:08.675Z,11.95
2022-12-01T04:12:40.622Z,11.38
2022-12-01T04:15:14.526Z,11.55
2022-12-01T04:17:46.451Z,12.57
2022-12-01T04:20:18.492Z,12.05
2022-12-01T04:22:51.891Z,12.80
2022-12-01T04:25:23.881Z,13.73
2022-12-01T04:27:55.795Z,11.80
2022-12-01T04:30:27.803Z,13.85
2022-12-01T04:32:59.712Z,10.65
2022-12-01T04:35:32.741Z,13.23
2022-12-01T04:38:06.144Z,13.98
2022-12-01T04:40:38.687Z,13.57
2022-12-01T04:43:10.624Z,13.65
2022-12-01T04:45:42.606Z,13.38
2022-12-01T04:48:14.571Z,13.98
2022-12-01T04:50:48.907Z,14.23
2022-12-01T04:53:22.255Z,13.30
2022-12-01T04:55:54.265Z,12.93
2022-12-01T04:58:26.219Z,13.45
2022-12-01T05:01:01.870Z,13.05
2022-12-01T05:03:36.807Z,13.13
2022-12-01T05:06:11.293Z,12.50
2022-12-01T05:08:44.824Z,12.55
2022-12-01T05:11:18.074Z,13.05
2022-12-01T05:13:50.564Z,14.65
2022-12-01T05:16:24.440Z,13.70
2022-12-01T05:19:16.710Z,13.10
2022-12-01T05:21:49.729Z,13.82
2022-12-01T05:24:23.151Z,14.60
2022-12-01T05:26:55.063Z,13.45
2022-12-01T05:29:27.036Z,13.20
2022-12-01T05:31:59.048Z,12.82
2022-12-01T05:34:31.057Z,14.20
2022-12-01T05:37:03.025Z,13.68
2022-12-01T05:39:36.365Z,13.73
2022-12-01T05:42:08.321Z,14.77
2022-12-01T05:44:40.277Z,14.55
2022-12-01T05:47:12.192Z,15.15
2022-12-01T05:49:44.123Z,13.95
2022-12-01T05:52:16.131Z,13.90
2022-12-01T05:54:49.420Z,15.38
2022-12-01T05:57:21.357Z,13.23
2022-12-01T05:59:53.314Z,15.63
2022-12-01T06:02:26.941Z,15.82
2022-12-01T06:04:58.947Z,15.45
2022-12-01T06:07:32.181Z,17.90
2022-12-01T06:10:07.877Z,19.13
2022-12-01T06:12:40.186Z,18.17
2022-12-01T06:15:13.422Z,16.42
2022-12-01T06:17:45.344Z,16.58
2022-12-01T06:20:17.888Z,15.98
2022-12-01T06:22:49.801Z,18.73
2022-12-01T06:25:23.177Z,14.73
2022-12-01T06:27:56.967Z,15.50
2022-12-01T06:30:29.066Z,16.55
2022-12-01T06:33:01.070Z,15.63
2022-12-01T06:35:33.110Z,14.65
2022-12-01T06:38:05.442Z,17.10
2022-12-01T06:40:38.852Z,14.15
2022-12-01T06:43:10.789Z,14.68
2022-12-01T06:45:42.858Z,15.38
2022-12-01T06:48:14.926Z,15.13
2022-12-01T06:50:46.908Z,15.32
2022-12-01T06:53:18.844Z,17.63
2022-12-01T06:55:52.172Z,16.77
2022-12-01T06:58:24.089Z,15.70
2022-12-01T07:00:57.467Z,15.45
2022-12-01T07:03:29.422Z,18.20
2022-12-01T07:06:01.883Z,15.90
2022-12-01T07:08:33.885Z,16.30
2022-12-01T07:11:08.962Z,16.45
2022-12-01T07:13:42.617Z,17.25
2022-12-01T07:16:14.602Z,16.52
2022-12-01T07:18:46.628Z,13.45
2022-12-01T07:21:18.587Z,12.70
2022-12-01T07:23:50.652Z,16.95
2022-12-01T07:26:24.070Z,13.77
2022-12-01T07:28:56.040Z,17.13
2022-12-01T07:31:28.103Z,15.25
2022-12-01T07:34:00.126Z,13.45
2022-12-01T07:36:32.090Z,13.45
2022-12-01T07:39:05.699Z,14.80
2022-12-01T07:41:39.021Z,14.43
2022-12-01T07:44:11.549Z,14.23
2022-12-01T07:46:43.604Z,13.32
2022-12-01T07:49:15.793Z,15.40
2022-12-01T07:51:47.841Z,13.27
2022-12-01T07:54:21.395Z,12.07
2022-12-01T07:56:54.819Z,14.00
2022-12-01T07:59:26.785Z,12.50
2022-12-01T08:01:58.832Z,15.15
2022-12-01T08:04:30.828Z,11.95
2022-12-01T08:07:03.190Z,13.90
2022-12-01T08:09:35.116Z,14.32
2022-12-01T08:12:08.780Z,15.45
2022-12-01T08:14:40.741Z,14.45
2022-12-01T08:17:13.171Z,14.07
2022-12-01T08:19:45.150Z,14.90
2022-12-01T08:22:17.127Z,16.02
2022-12-01T08:24:49.104Z,17.25
2022-12-01T08:27:22.506Z,13.80
2022-12-01T08:29:54.519Z,14.90
2022-12-01T08:32:26.558Z,13.20
2022-12-01T08:34:58.481Z,14.45
2022-12-01T08:37:30.491Z,15.55
2022-12-01T08:40:02.647Z,14.05
2022-12-01T08:42:36.074Z,13.25
2022-12-01T08:45:09.177Z,13.23
2022-12-01T08:47:41.142Z,21.95
2022-12-01T08:50:13.147Z,13.38
2022-12-01T08:52:45.709Z,12.93
2022-12-01T08:55:17.836Z,15.30
2022-12-01T08:57:51.316Z,17.85
2022-12-01T09:00:23.228Z,16.98
2022-12-01T09:02:55.174Z,16.88
2022-12-01T09:05:28.156Z,17.10
2022-12-01T09:08:19.143Z,13.38
2022-12-01T09:10:52.345Z,13.80
2022-12-01T09:13:25.847Z,14.73
2022-12-01T09:15:59.589Z,12.70
2022-12-01T09:18:31.882Z,13.85
2022-12-01T09:21:10.915Z,13.43
2022-12-01T09:23:42.936Z,13.05
2022-12-01T09:26:18.625Z,14.30
2022-12-01T09:28:54.638Z,12.98
2022-12-01T09:31:26.917Z,11.82
2022-12-01T09:34:02.987Z,11.40
2022-12-01T09:36:36.149Z,12.73
2022-12-01T09:39:11.838Z,12.63
2022-12-01T09:41:47.318Z,11.18
2022-12-01T09:44:31.490Z,10.40
2022-12-01T09:47:13.091Z,11.57
2022-12-01T09:49:51.843Z,11.73
2022-12-01T09:52:27.061Z,10.50
2022-12-01T09:55:00.526Z,11.60
2022-12-01T09:57:35.411Z,12.02
2022-12-01T10:00:14.826Z,11.68
2022-12-01T10:02:51.716Z,12.27
2022-12-01T10:05:26.803Z,10.75
2022-12-01T10:08:01.947Z,10.00
2022-12-01T10:10:39.641Z,10.60
2022-12-01T10:13:17.916Z,13.55
2022-12-01T10:15:59.388Z,11.70
2022-12-01T10:18:39.853Z,11.38
2022-12-01T10:21:19.769Z,12.98
2022-12-01T10:24:07.498Z,13.38
2022-12-01T10:26:50.772Z,13.93
2022-12-01T10:29:32.051Z,11.32
2022-12-01T10:32:13.813Z,11.68
2022-12-01T10:34:47.951Z,12.75
2022-12-01T10:37:23.482Z,10.40
2022-12-01T10:39:58.072Z,11.63
2022-12-01T10:42:34.664Z,11.95
2022-12-01T10:45:14.251Z,10.98
2022-12-01T10:48:11.530Z,11.43
2022-12-01T10:50:44.816Z,12.48
2022-12-01T10:53:27.361Z,20.05
2022-12-01T10:56:05.111Z,16.35
2022-12-01T10:58:44.159Z,16.35
2022-12-01T11:01:19.411Z,14.13
2022-12-01T11:03:57.167Z,10.30
2022-12-01T11:06:30.996Z,10.50
2022-12-01T11:09:06.705Z,11.13
2022-12-01T11:11:40.684Z,10.55
2022-12-01T11:14:19.360Z,11.63
2022-12-01T11:16:53.998Z,15.15
2022-12-01T11:19:33.121Z,11.65
2022-12-01T11:22:20.538Z,13.50
2022-12-01T11:25:02.024Z,12.95
2022-12-01T11:27:36.443Z,11.35
2022-12-01T11:30:21.193Z,10.93
2022-12-01T11:32:55.584Z,10.02
2022-12-01T11:35:32.075Z,10.70
2022-12-01T11:40:59.141Z,10.95
2022-12-01T11:43:35.111Z,10.20
2022-12-01T11:46:09.264Z,11.82
2022-12-01T11:48:41.233Z,11.13
2022-12-01T11:51:27.417Z,10.60
2022-12-01T11:54:12.816Z,9.88
2022-12-01T11:56:52.804Z,10.90
2022-12-01T11:59:36.432Z,11.40
2022-12-01T12:02:26.385Z,10.60
2022-12-01T12:05:15.075Z,12.23
2022-12-01T12:07:59.704Z,11.05
2022-12-01T12:10:44.622Z,11.20
2022-12-01T12:13:38.559Z,10.95
2022-12-01T12:16:18.889Z,12.82
2022-12-01T12:21:35.099Z,9.60
2022-12-01T12:24:33.584Z,10.77
2022-12-01T12:27:13.891Z,11.27
2022-12-01T12:29:58.503Z,14.18
2022-12-01T12:32:49.515Z,14.57
2022-12-01T12:35:34.121Z,16.33
2022-12-01T12:38:17.071Z,13.85
2022-12-01T12:40:55.389Z,14.15
2022-12-01T12:43:38.265Z,18.92
2022-12-01T12:46:12.411Z,13.93
2022-12-01T12:49:19.073Z,11.65
2022-12-01T12:51:55.660Z,9.95
2022-12-01T12:54:32.432Z,10.43
2022-12-01T12:57:18.763Z,9.52
2022-12-01T12:59:55.942Z,9.00
2022-12-01T13:02:35.434Z,10.73
2022-12-01T13:05:20.756Z,11.23
2022-12-01T13:07:58.324Z,8.80
2022-12-01T13:10:37.098Z,9.30
2022-12-01T13:13:20.734Z,10.43
2022-12-01T13:15:55.416Z,10.35
2022-12-01T13:18:34.575Z,10.65
2022-12-01T13:21:09.466Z,11.23
2022-12-01T13:23:41.916Z,10.55
2022-12-01T13:26:15.574Z,10.55
2022-12-01T13:28:51.957Z,9.60
2022-12-01T13:31:24.454Z,10.30
2022-12-01T13:33:59.898Z,10.55
2022-12-01T13:36:49.226Z,14.30
2022-12-01T13:39:23.153Z,13.83
2022-12-01T13:42:00.915Z,16.20
2022-12-01T13:44:42.364Z,15.10
2022-12-01T13:47:51.623Z,17.50
2022-12-01T13:51:03.089Z,15.98
2022-12-01T13:53:36.963Z,17.80
2022-12-01T13:56:39.406Z,19.55
2022-12-01T13:59:40.522Z,22.42
2022-12-01T14:02:19.974Z,23.38
2022-12-01T14:04:52.309Z,29.83
2022-12-01T14:07:33.540Z,28.38
2022-12-01T14:10:25.352Z,28.08
2022-12-01T14:13:02.424Z,24.38
2022-12-01T14:15:42.991Z,28.40
2022-12-01T14:18:36.254Z,27.42
2022-12-01T14:21:11.547Z,24.95
2022-12-01T14:23:59.612Z,25.55
2022-12-01T14:26:31.784Z,27.85
2022-12-01T14:29:10.123Z,24.10
2022-12-01T14:32:24.799Z,23.55
2022-12-01T14:35:11.503Z,20.30
2022-12-01T14:37:49.151Z,18.88
2022-12-01T14:40:28.683Z,18.20
2022-12-01T14:43:20.676Z,16.77
2022-12-01T14:46:06.085Z,16.90
2022-12-01T14:48:42.008Z,16.30
2022-12-01T14:51:24.058Z,15.85
2022-12-01T14:53:57.283Z,19.10
2022-12-01T14:56:32.323Z,14.60
2022-12-01T14:59:18.975Z,17.33
2022-12-01T15:01:54.172Z,17.88
2022-12-01T15:04:26.208Z,17.00
2022-12-01T15:06:59.565Z,17.00
2022-12-01T15:09:34.504Z,11.98
2022-12-01T15:12:07.770Z,13.00
2022-12-01T15:14:49.760Z,15.50
2022-12-01T15:17:30.183Z,14.52
2022-12-01T15:20:02.159Z,16.38
2022-12-01T15:22:35.545Z,16.50
2022-12-01T15:25:13.258Z,18.60
2022-12-01T15:27:45.382Z,21.67
2022-12-01T15:30:18.839Z,22.98
2022-12-01T15:32:50.813Z,20.85
2022-12-01T15:35:23.895Z,16.75
2022-12-01T15:37:57.729Z,19.98
2022-12-01T15:43:26.917Z,25.80
2022-12-01T15:46:00.565Z,22.90
2022-12-01T15:48:34.376Z,17.98
2022-12-01T15:51:13.737Z,23.45
2022-12-01T15:53:51.216Z,17.15
2022-12-01T15:56:27.423Z,27.20
2022-12-01T15:59:07.803Z,20.75
2022-12-01T16:01:42.350Z,21.67
2022-12-01T16:04:18.911Z,15.98
2022-12-01T16:06:58.035Z,15.98
2022-12-01T16:09:35.276Z,20.65
2022-12-01T16:12:21.981Z,17.77
2022-12-01T16:14:57.201Z,15.55
2022-12-01T16:17:41.914Z,15.23
2022-12-01T16:20:21.565Z,16.17
2022-12-01T16:22:59.017Z,15.82
2022-12-01T16:25:36.759Z,16.90
2022-12-01T16:28:21.044Z,15.15
2022-12-01T16:30:53.253Z,15.27
2022-12-01T16:33:26.956Z,12.75
2022-12-01T16:36:03.595Z,13.52
2022-12-01T16:38:35.973Z,12.73
2022-12-01T16:41:18.481Z,15.63
2022-12-01T16:44:12.893Z,18.55
2022-12-01T16:46:42.754Z,16.02
2022-12-01T16:49:14.794Z,12.05
2022-12-01T16:52:22.135Z,13.77
2022-12-01T16:54:38.682Z,13.55
2022-12-01T16:57:12.044Z,12.52
2022-12-01T16:59:44.150Z,12.82
2022-12-01T17:02:16.201Z,12.35
2022-12-01T17:04:48.245Z,12.93
2022-12-01T17:07:20.475Z,13.80
2022-12-01T17:09:52.408Z,14.52
2022-12-01T17:12:26.781Z,18.95
2022-12-01T17:14:58.655Z,16.05
2022-12-01T17:17:30.691Z,12.82
2022-12-01T17:20:02.814Z,15.15
2022-12-01T17:22:35.414Z,16.60
2022-12-01T17:25:11.430Z,17.60
2022-12-01T17:27:45.805Z,16.58
2022-12-01T17:30:17.839Z,15.90
2022-12-01T17:32:49.759Z,13.88
2022-12-01T17:35:22.416Z,13.45
2022-12-01T17:37:54.347Z,13.43
2022-12-01T17:40:26.396Z,12.57
2022-12-01T17:42:59.785Z,15.32
2022-12-01T17:45:32.500Z,13.57
2022-12-01T17:48:04.843Z,14.15
2022-12-01T17:50:38.102Z,16.30
2022-12-01T17:53:10.171Z,17.70
2022-12-01T17:55:42.173Z,41.67
2022-12-01T17:58:18.110Z,27.80
2022-12-01T18:00:50.548Z,64.85
2022-12-01T18:03:22.531Z,19.77
2022-12-01T18:05:56.208Z,16.75
2022-12-01T18:08:30.279Z,18.05
2022-12-01T18:11:03.382Z,14.25
2022-12-01T18:13:38.360Z,17.80
2022-12-01T18:16:12.762Z,20.58
2022-12-01T18:18:44.767Z,16.45
2022-12-01T18:21:18.687Z,19.23
2022-12-01T18:23:51.379Z,14.07
2022-12-01T18:26:23.710Z,16.33
2022-12-01T18:28:58.649Z,23.00
2022-12-01T18:31:31.348Z,18.25
2022-12-01T18:34:04.518Z,17.95
2022-12-01T18:36:38.211Z,16.63
2022-12-01T18:39:11.329Z,16.80
2022-12-01T18:41:43.238Z,16.63
2022-12-01T18:44:16.639Z,16.10
2022-12-01T18:46:48.648Z,16.15
2022-12-01T18:49:20.648Z,15.75
2022-12-01T18:51:52.537Z,14.80
2022-12-01T18:54:24.478Z,16.55
2022-12-01T18:56:58.932Z,15.85
2022-12-01T18:59:32.297Z,15.35
2022-12-01T19:02:05.475Z,15.80
2022-12-01T19:04:37.567Z,17.90
2022-12-01T19:07:09.470Z,16.30
2022-12-01T19:09:41.529Z,15.98
2022-12-01T19:12:13.510Z,15.35
2022-12-01T19:14:46.927Z,16.33
2022-12-01T19:17:18.860Z,17.45
2022-12-01T19:19:50.791Z,15.55
2022-12-01T19:22:23.250Z,15.57
2022-12-01T19:24:56.905Z,16.05
2022-12-01T19:27:29.081Z,17.17
2022-12-01T19:30:02.441Z,18.48
2022-12-01T19:32:34.631Z,17.13
2022-12-01T19:35:06.995Z,17.90
2022-12-01T19:37:38.924Z,19.67
2022-12-01T19:40:12.171Z,17.20
2022-12-01T19:42:44.530Z,20.38
2022-12-01T19:45:18.097Z,17.10
2022-12-01T19:47:51.263Z,16.42
2022-12-01T19:50:23.551Z,17.23
2022-12-01T19:52:55.516Z,16.10
2022-12-01T19:55:27.525Z,21.92
2022-12-01T19:57:59.497Z,22.67
2022-12-01T20:00:33.032Z,16.95
2022-12-01T20:03:05.020Z,21.38
2022-12-01T20:05:37.025Z,18.75
2022-12-01T20:08:13.416Z,24.35
2022-12-01T20:10:47.392Z,21.50
2022-12-01T20:13:19.312Z,17.98
2022-12-01T20:15:52.634Z,17.42
2022-12-01T20:18:24.569Z,17.75
2022-12-01T20:21:03.471Z,16.58
2022-12-01T20:23:36.297Z,15.73
2022-12-01T20:26:08.833Z,15.40
2022-12-01T20:28:41.681Z,14.40
2022-12-01T20:31:19.410Z,15.35
2022-12-01T20:33:53.301Z,14.18
2022-12-01T20:36:25.690Z,15.48
2022-12-01T20:38:57.617Z,16.77
2022-12-01T20:41:29.566Z,13.95
2022-12-01T20:44:06.949Z,14.15
2022-12-01T20:46:41.156Z,14.15
2022-12-01T20:49:14.010Z,14.65
2022-12-01T20:51:46.458Z,14.23
2022-12-01T20:54:27.806Z,15.18
2022-12-01T20:57:00.937Z,14.82
2022-12-01T20:59:34.317Z,14.32
2022-12-01T21:02:07.666Z,14.77
2022-12-01T21:04:39.757Z,14.60
2022-12-01T21:07:11.713Z,15.10
2022-12-01T21:09:43.621Z,13.10
2022-12-01T21:12:35.386Z,14.18
2022-12-01T21:15:17.693Z,15.77
2022-12-01T21:17:56.653Z,15.80
2022-12-01T21:20:31.496Z,15.80
2022-12-01T21:23:09.794Z,14.45
2022-12-01T21:25:42.786Z,15.05
2022-12-01T21:28:18.992Z,14.77
2022-12-01T21:30:56.936Z,14.13
2022-12-01T21:33:32.476Z,13.32
2022-12-01T21:36:14.021Z,14.57
2022-12-01T21:38:48.471Z,12.80
2022-12-01T21:41:25.264Z,14.68
2022-12-01T21:44:05.137Z,15.25
2022-12-01T21:46:39.736Z,14.82
2022-12-01T21:49:18.917Z,15.57
2022-12-01T21:51:53.105Z,15.70
2022-12-01T21:54:25.104Z,14.20
2022-12-01T21:56:58.376Z,13.35
2022-12-01T21:59:30.347Z,15.45
2022-12-01T22:02:25.118Z,14.45
2022-12-01T22:04:59.490Z,14.80
2022-12-01T22:07:31.508Z,14.93
2022-12-01T22:10:46.372Z,13.90
2022-12-01T22:13:18.842Z,14.32
2022-12-01T22:15:53.612Z,14.15
2022-12-01T22:18:32.633Z,16.45
2022-12-01T22:21:35.253Z,16.30
2022-12-01T22:24:22.992Z,13.38
2022-12-01T22:27:14.531Z,16.08
2022-12-01T22:29:49.100Z,13.98
2022-12-01T22:32:39.365Z,14.43
2022-12-01T22:35:34.190Z,15.38
2022-12-01T22:38:32.188Z,14.73
2022-12-01T22:41:06.351Z,28.30
2022-12-01T22:43:43.465Z,17.55
2022-12-01T22:46:39.817Z,14.82
2022-12-01T22:49:19.523Z,15.85
2022-12-01T22:51:52.800Z,18.98
2022-12-01T22:54:33.039Z,24.23
2022-12-01T22:57:25.333Z,17.92
2022-12-01T22:59:57.939Z,16.08
2022-12-01T23:02:33.386Z,18.08
2022-12-01T23:05:18.037Z,19.42
2022-12-01T23:07:51.208Z,19.02
2022-12-01T23:10:28.402Z,19.52
2022-12-01T23:13:08.812Z,18.52
2022-12-01T23:15:44.290Z,15.65
2022-12-01T23:18:19.412Z,16.40
2022-12-01T23:20:53.009Z,17.73
2022-12-01T23:23:27.511Z,17.17
2022-12-01T23:26:02.262Z,14.07
2022-12-01T23:28:36.155Z,14.45
2022-12-01T23:31:09.424Z,15.27
2022-12-01T23:33:42.375Z,15.23
2022-12-01T23:36:18.652Z,15.15
2022-12-01T23:38:52.657Z,14.90
2022-12-01T23:41:31.744Z,15.02
2022-12-01T23:44:09.457Z,14.68
2022-12-01T23:46:44.460Z,15.18
2022-12-01T23:49:20.702Z,14.15
2022-12-01T23:51:54.901Z,14.57
2022-12-01T23:54:29.823Z,15.35
2022-12-01T23:57:09.383Z,16.63
2022-12-01T23:59:42.622Z,13.73
